Time;durP1;ratioP1;P1;durP2;ratioP2;P2;SDS_P1;SDS_P2;PMS_P1;PMS_P2;Temp;Humidity;BMP_temperature;BMP_pressure;BME280_temperature;BME280_humidity;BME280_pressure;Samples;Min_cycle;Max_cycle;Signal;HPM_P1;HPM_P2
2021/11/09 00:00:47;;;;;;;16.33;9.07;;;;;;;1.81;100.00;99053.34;5073093;28;20203;-62
2021/11/09 00:03:15;;;;;;;15.80;9.40;;;;;;;1.75;100.00;99047.38;5072950;28;20215;-62
2021/11/09 00:05:49;;;;;;;20.63;10.00;;;;;;;1.76;100.00;99049.97;5073011;28;20219;-62
2021/11/09 00:08:20;;;;;;;15.83;9.87;;;;;;;1.79;100.00;99044.69;5072921;28;20659;-62
2021/11/09 00:10:47;;;;;;;13.63;9.57;;;;;;;1.73;100.00;99049.19;5072991;28;20222;-62
2021/11/09 00:13:15;;;;;;;17.07;10.33;;;;;;;1.64;100.00;99060.63;5072960;28;20589;-62
2021/11/09 00:15:42;;;;;;;15.73;10.90;;;;;;;1.66;100.00;99056.25;5071221;28;20238;-62
2021/11/09 00:18:09;;;;;;;15.97;10.03;;;;;;;1.50;100.00;99057.44;5072815;28;20716;-62
2021/11/09 00:20:37;;;;;;;16.57;10.30;;;;;;;1.60;100.00;99066.78;5072972;28;20216;-62
2021/11/09 00:23:06;;;;;;;16.83;10.47;;;;;;;1.67;100.00;99055.34;5072890;28;20213;-62
2021/11/09 00:25:33;;;;;;;15.50;9.77;;;;;;;1.53;100.00;99059.97;5072503;28;20222;-62
2021/11/09 00:28:01;;;;;;;16.47;10.00;;;;;;;1.43;100.00;99054.97;5072582;28;20313;-62
2021/11/09 00:30:30;;;;;;;14.53;10.20;;;;;;;1.43;100.00;99068.88;5072891;28;20207;-62
2021/11/09 00:32:57;;;;;;;15.47;9.63;;;;;;;1.43;100.00;99066.25;5072825;28;20219;-62
2021/11/09 00:35:26;;;;;;;15.27;9.77;;;;;;;1.43;100.00;99065.38;5072862;28;20222;-62
2021/11/09 00:37:54;;;;;;;15.07;10.13;;;;;;;1.41;100.00;99073.22;5072766;28;20246;-62
2021/11/09 00:40:24;;;;;;;18.60;10.60;;;;;;;1.45;100.00;99072.28;5072620;28;20219;-62
2021/11/09 00:42:50;;;;;;;18.27;10.83;;;;;;;1.45;100.00;99074.03;5070809;28;20317;-62
2021/11/09 00:45:17;;;;;;;21.13;10.20;;;;;;;1.45;100.00;99074.88;5072368;28;20213;-62
2021/11/09 00:47:46;;;;;;;18.87;10.57;;;;;;;1.46;100.00;99071.41;5072538;28;20218;-62
2021/11/09 00:50:16;;;;;;;15.30;10.20;;;;;;;1.48;100.00;99082.63;5072714;28;20219;-62
2021/11/09 00:52:44;;;;;;;18.07;11.93;;;;;;;1.52;100.00;99076.50;5072193;28;20218;-62
2021/11/09 00:55:13;;;;;;;19.57;11.47;;;;;;;1.64;100.00;99078.88;5072647;28;20289;-62
2021/11/09 00:57:39;;;;;;;17.67;11.10;;;;;;;1.75;100.00;99082.13;5072911;28;20275;-62
2021/11/09 01:00:08;;;;;;;16.63;11.37;;;;;;;1.86;100.00;99080.19;5076334;28;20211;-62
2021/11/09 01:02:35;;;;;;;17.70;12.30;;;;;;;2.02;100.00;99084.19;5076112;28;20215;-62
2021/11/09 01:05:03;;;;;;;20.40;11.67;;;;;;;2.14;100.00;99083.94;5075946;28;20247;-62
2021/11/09 01:07:29;;;;;;;19.97;12.83;;;;;;;2.28;100.00;99084.50;5074605;28;20246;-62
2021/11/09 01:09:56;;;;;;;18.60;12.43;;;;;;;2.44;100.00;99078.06;5076151;28;20573;-62
2021/11/09 01:12:22;;;;;;;18.63;12.70;;;;;;;2.46;100.00;99086.69;5076237;28;20302;-62
2021/11/09 01:14:49;;;;;;;23.07;13.10;;;;;;;2.59;100.00;99088.16;5076143;28;20677;-62
2021/11/09 01:17:16;;;;;;;21.07;12.67;;;;;;;2.65;100.00;99076.72;5076142;28;20576;-63
2021/11/09 01:19:43;;;;;;;20.67;12.93;;;;;;;2.75;100.00;99078.25;5076081;28;20255;-62
2021/11/09 01:22:11;;;;;;;20.67;12.47;;;;;;;2.78;100.00;99081.63;5076227;28;20220;-62
2021/11/09 01:24:38;;;;;;;19.77;11.90;;;;;;;2.82;100.00;99078.03;5076061;28;20261;-62
2021/11/09 01:27:06;;;;;;;17.70;11.50;;;;;;;2.80;100.00;99071.13;5076259;28;20211;-62
2021/11/09 01:29:32;;;;;;;15.53;11.37;;;;;;;2.87;100.00;99078.78;5076076;28;20238;-62
2021/11/09 01:31:59;;;;;;;15.97;11.57;;;;;;;2.89;100.00;99077.00;5075947;28;20216;-62
2021/11/09 01:34:26;;;;;;;16.07;11.63;;;;;;;2.89;100.00;99087.44;5074076;28;20672;-62
2021/11/09 01:36:53;;;;;;;17.67;11.53;;;;;;;2.89;100.00;99087.44;5075795;28;20231;-62
2021/11/09 01:39:20;;;;;;;17.50;11.50;;;;;;;2.83;100.00;99077.16;5075366;28;20243;-62
2021/11/09 01:41:47;;;;;;;14.83;10.60;;;;;;;2.69;100.00;99076.59;5075565;28;20223;-62
2021/11/09 01:44:14;;;;;;;19.77;10.90;;;;;;;2.77;100.00;99077.31;5075531;28;20581;-62
2021/11/09 01:46:41;;;;;;;17.90;10.40;;;;;;;2.77;100.00;99063.38;5075253;28;20681;-62
2021/11/09 01:49:09;;;;;;;16.23;10.27;;;;;;;2.75;100.00;99063.41;5075587;28;20533;-62
2021/11/09 01:51:36;;;;;;;16.77;10.40;;;;;;;2.76;100.00;99059.91;5075029;28;20226;-62
2021/11/09 01:54:04;;;;;;;16.27;9.93;;;;;;;2.68;100.00;99063.59;5075323;28;20219;-62
2021/11/09 01:56:33;;;;;;;15.60;10.17;;;;;;;2.65;100.00;99071.50;5075476;28;20574;-62
2021/11/09 01:59:00;;;;;;;13.37;9.20;;;;;;;2.65;100.00;99067.16;5075310;28;20239;-62
2021/11/09 02:01:28;;;;;;;19.23;9.87;;;;;;;2.65;100.00;99064.53;5072021;28;20235;-62
2021/11/09 02:03:57;;;;;;;15.97;10.30;;;;;;;2.63;100.00;99068.91;5075054;28;20244;-62
2021/11/09 02:06:24;;;;;;;15.07;8.97;;;;;;;2.65;100.00;99071.50;5074715;28;20215;-62
2021/11/09 02:08:53;;;;;;;15.73;9.20;;;;;;;2.66;100.00;99070.59;5074875;28;20222;-62
2021/11/09 02:11:20;;;;;;;11.97;8.80;;;;;;;2.65;100.00;99067.16;5074223;28;20219;-62
2021/11/09 02:13:48;;;;;;;15.80;10.03;;;;;;;2.65;100.00;99077.59;5074960;28;20220;-62
2021/11/09 02:16:15;;;;;;;14.70;9.07;;;;;;;2.64;100.00;99081.06;5074891;28;20268;-62
2021/11/09 02:18:42;;;;;;;13.77;9.13;;;;;;;2.69;100.00;99089.66;5074860;28;20235;-62
2021/11/09 02:21:12;;;;;;;13.30;8.97;;;;;;;2.69;100.00;99084.44;5074804;28;20216;-62
2021/11/09 02:23:43;;;;;;;11.87;8.40;;;;;;;2.66;100.00;99084.53;5074800;28;20742;-62
2021/11/09 02:26:10;;;;;;;15.83;9.30;;;;;;;2.68;100.00;99085.34;5073201;28;20631;-62
2021/11/09 02:28:37;;;;;;;12.73;9.20;;;;;;;2.71;100.00;99082.69;5074527;28;20684;-62
2021/11/09 02:31:05;;;;;;;12.90;9.10;;;;;;;2.71;100.00;99089.63;5074484;28;20212;-62
2021/11/09 02:33:32;;;;;;;10.83;8.57;;;;;;;2.69;100.00;99087.06;5074728;28;20306;-62
2021/11/09 02:35:58;;;;;;;13.93;9.00;;;;;;;2.73;100.00;99095.66;5074783;28;20227;-62
2021/11/09 02:38:26;;;;;;;13.87;8.63;;;;;;;2.75;100.00;99099.97;5074156;28;20239;-62
2021/11/09 02:40:53;;;;;;;14.40;8.67;;;;;;;2.79;100.00;99101.63;5074495;28;20223;-62
2021/11/09 02:43:20;;;;;;;11.77;8.50;;;;;;;2.81;100.00;99112.88;5074414;28;20219;-62
2021/11/09 02:45:57;;;;;;;12.93;8.77;;;;;;;2.81;100.00;99099.81;5074134;28;20218;-62
2021/11/09 02:48:26;;;;;;;16.30;9.90;;;;;;;2.82;100.00;99096.31;5074431;28;20219;-62
2021/11/09 02:50:57;;;;;;;14.90;9.50;;;;;;;2.80;100.00;99092.00;5074363;28;20219;-62
2021/11/09 02:53:32;;;;;;;12.33;8.67;;;;;;;2.82;100.00;99091.09;5072657;28;20219;-62
2021/11/09 02:56:06;;;;;;;15.40;9.33;;;;;;;2.80;100.00;99092.00;5074279;28;20215;-62
2021/11/09 02:58:43;;;;;;;14.47;9.83;;;;;;;2.77;100.00;99098.19;5073819;28;20277;-62
2021/11/09 03:01:14;;;;;;;14.73;8.90;;;;;;;2.76;100.00;99096.44;5062580;28;20578;-62
2021/11/09 03:03:44;;;;;;;15.37;9.40;;;;;;;2.71;100.00;99090.50;5073766;28;20727;-62
2021/11/09 03:06:22;;;;;;;14.90;8.70;;;;;;;2.64;100.00;99086.28;5074021;28;20303;-62
2021/11/09 03:08:54;;;;;;;13.87;8.90;;;;;;;2.58;100.00;99089.03;5072695;28;20247;-62
2021/11/09 03:11:21;;;;;;;13.90;9.00;;;;;;;2.52;100.00;99097.00;5073653;28;20294;-62
2021/11/09 03:13:49;;;;;;;13.33;7.93;;;;;;;2.43;100.00;99085.91;5073584;28;20222;-62
2021/11/09 03:16:17;;;;;;;15.47;8.43;;;;;;;2.31;100.00;99087.03;5073718;28;20212;-62
2021/11/09 03:18:48;;;;;;;13.80;9.10;;;;;;;2.27;100.00;99090.59;5072077;28;20238;-62
2021/11/09 03:40:26;;;;;;;15.43;9.10;;;;;;;1.73;100.00;99076.06;5071361;28;20656;-62
2021/11/09 03:45:40;;;;;;;13.97;8.73;;;;;;;1.71;100.00;99080.47;5071316;28;20296;-62
2021/11/09 03:48:09;;;;;;;15.10;9.97;;;;;;;1.62;100.00;99082.38;5073232;28;20218;-62
2021/11/09 03:50:37;;;;;;;17.47;9.30;;;;;;;1.51;100.00;99076.50;5073301;28;20226;-62
2021/11/09 03:53:08;;;;;;;17.27;9.90;;;;;;;1.43;100.00;99076.69;5072983;28;20219;-62
2021/11/09 03:55:43;;;;;;;20.80;10.33;;;;;;;1.45;100.00;99080.09;5073098;28;20211;-62
2021/11/09 03:58:18;;;;;;;16.93;10.10;;;;;;;1.48;100.00;99087.84;5061385;28;20218;-62
2021/11/09 04:00:49;;;;;;;20.47;10.87;;;;;;;1.40;100.00;99092.34;5072843;28;20219;-62
2021/11/09 04:03:26;;;;;;;14.07;9.53;;;;;;;1.39;100.00;99095.84;5072670;28;20696;-62
2021/11/09 04:05:56;;;;;;;16.10;10.40;;;;;;;1.30;100.00;99090.78;5071721;28;20734;-62
2021/11/09 04:08:35;;;;;;;15.50;9.63;;;;;;;1.16;100.00;99097.13;5072974;28;20216;-62
2021/11/09 04:11:09;;;;;;;15.67;9.47;;;;;;;1.06;100.00;99092.94;5071322;28;20219;-62
2021/11/09 04:13:42;;;;;;;13.27;9.27;;;;;;;1.00;100.00;99090.44;5070244;28;20218;-61
2021/11/09 04:16:25;;;;;;;14.50;9.37;;;;;;;0.89;100.00;99098.44;5073017;28;20215;-62
2021/11/09 04:18:58;;;;;;;18.27;9.47;;;;;;;0.88;100.00;99101.94;5072869;28;20266;-62
2021/11/09 04:24:42;;;;;;;18.80;9.70;;;;;;;0.87;100.00;99099.34;5072114;28;20290;-62
2021/11/09 04:30:14;;;;;;;14.53;10.90;;;;;;;0.88;100.00;99103.66;5061789;28;20222;-62
2021/11/09 04:33:12;;;;;;;14.73;10.00;;;;;;;0.80;100.00;99102.94;5072866;28;20211;-62
2021/11/09 05:03:07;;;;;;;18.10;10.73;;;;;;;0.73;100.00;99091.72;5074266;28;20276;-62
2021/11/09 05:08:33;;;;;;;14.80;10.70;;;;;;;0.69;100.00;99099.63;5076057;28;20297;-62
2021/11/09 05:11:00;;;;;;;16.20;10.53;;;;;;;0.70;100.00;99107.41;5065291;28;20219;-62
2021/11/09 05:13:27;;;;;;;21.23;11.40;;;;;;;0.70;100.00;99102.22;5076147;28;20302;-62
2021/11/09 05:15:54;;;;;;;17.73;10.80;;;;;;;0.70;100.00;99102.22;5076437;28;20215;-62
2021/11/09 05:18:23;;;;;;;17.37;11.27;;;;;;;0.69;100.00;99099.63;5075699;28;20692;-62
2021/11/09 05:20:49;;;;;;;20.67;11.70;;;;;;;0.58;100.00;99105.00;5076109;28;20239;-62
2021/11/09 05:23:16;;;;;;;21.30;12.73;;;;;;;0.56;100.00;99108.50;5075758;28;20223;-61
2021/11/09 05:25:43;;;;;;;15.70;10.53;;;;;;;0.59;100.00;99098.91;5075958;28;20211;-62
2021/11/09 05:28:10;;;;;;;16.40;10.97;;;;;;;0.55;100.00;99106.78;5073929;28;20219;-62
2021/11/09 05:30:38;;;;;;;15.47;10.53;;;;;;;0.51;100.00;99100.72;5064108;28;20728;-62
2021/11/09 05:33:05;;;;;;;14.00;10.43;;;;;;;0.46;100.00;99102.56;5075773;28;20219;-61
2021/11/09 05:35:33;;;;;;;18.43;11.97;;;;;;;0.46;100.00;99107.75;5075315;28;20679;-62
2021/11/09 05:38:02;;;;;;;23.40;12.67;;;;;;;0.60;100.00;99112.75;5075545;28;20285;-62
2021/11/09 05:40:31;;;;;;;22.93;12.60;;;;;;;0.62;100.00;99109.25;5063947;28;20270;-61
2021/11/09 05:42:59;;;;;;;20.90;12.70;;;;;;;0.63;100.00;99097.09;5075372;28;20700;-63
2021/11/09 05:45:25;;;;;;;21.97;13.00;;;;;;;0.64;100.00;99107.50;5074022;28;20665;-62
2021/11/09 05:47:52;;;;;;;24.93;14.10;;;;;;;0.64;100.00;99110.09;5075488;28;20211;-61
2021/11/09 05:50:19;;;;;;;19.80;13.73;;;;;;;0.66;100.00;99121.34;5075589;28;20215;-62
2021/11/09 05:52:47;;;;;;;24.10;14.50;;;;;;;0.61;100.00;99117.94;5075507;28;20238;-62
2021/11/09 05:55:14;;;;;;;19.73;13.37;;;;;;;0.58;100.00;99118.00;5073758;28;20215;-62
2021/11/09 05:57:41;;;;;;;24.60;14.03;;;;;;;0.55;100.00;99114.56;5075216;28;20222;-62
2021/11/09 06:00:09;;;;;;;21.07;12.67;;;;;;;0.54;100.00;99120.63;5075025;28;20246;-62
2021/11/09 06:02:36;;;;;;;20.90;13.13;;;;;;;0.52;100.00;99123.28;5075228;28;20211;-62
2021/11/09 06:05:03;;;;;;;21.17;13.20;;;;;;;0.53;100.00;99126.72;5074867;28;20246;-62
2021/11/09 06:07:29;;;;;;;23.63;15.50;;;;;;;0.46;100.00;99133.75;5075166;28;20219;-61
2021/11/09 06:09:57;;;;;;;21.07;13.63;;;;;;;0.43;100.00;99131.19;5063497;28;20219;-62
2021/11/09 06:12:24;;;;;;;19.27;13.10;;;;;;;0.45;100.00;99132.03;5075116;28;20215;-62
2021/11/09 06:14:50;;;;;;;19.17;13.83;;;;;;;0.45;100.00;99134.63;5074836;28;20216;-62
2021/11/09 06:17:17;;;;;;;21.00;13.70;;;;;;;0.47;100.00;99135.47;5075170;28;20229;-62
2021/11/09 06:19:43;;;;;;;22.37;14.20;;;;;;;0.43;100.00;99133.78;5073463;28;20231;-62
2021/11/09 06:22:10;;;;;;;23.90;14.97;;;;;;;0.36;100.00;99134.75;5074760;28;20208;-62
2021/11/09 06:24:36;;;;;;;21.63;14.73;;;;;;;0.42;100.00;99139.88;5075042;28;20321;-62
2021/11/09 06:27:05;;;;;;;19.70;13.73;;;;;;;0.46;100.00;99149.38;5074527;28;20215;-62
2021/11/09 06:29:31;;;;;;;22.20;13.90;;;;;;;0.53;100.00;99139.72;5074799;28;20218;-62
2021/11/09 06:32:00;;;;;;;19.43;13.07;;;;;;;0.56;100.00;99147.50;5074505;28;20681;-62
2021/11/09 06:34:26;;;;;;;18.57;12.80;;;;;;;0.53;100.00;99140.59;5074906;28;20215;-62
2021/11/09 06:36:53;;;;;;;18.43;12.40;;;;;;;0.45;100.00;99145.03;5074642;28;20212;-62
2021/11/09 06:39:19;;;;;;;20.20;12.97;;;;;;;0.45;100.00;99149.38;5074288;28;20697;-61
2021/11/09 06:41:47;;;;;;;19.13;12.57;;;;;;;0.50;100.00;99156.22;5074750;28;20216;-63
2021/11/09 06:44:15;;;;;;;17.37;11.67;;;;;;;0.52;100.00;99164.88;5074511;28;20590;-62
2021/11/09 06:46:42;;;;;;;21.07;13.70;;;;;;;0.57;100.00;99163.06;5072507;28;20215;-62
2021/11/09 06:49:09;;;;;;;21.50;13.73;;;;;;;0.68;100.00;99158.56;5074485;28;20220;-62
2021/11/09 06:51:36;;;;;;;17.53;13.23;;;;;;;0.67;100.00;99164.66;5074308;28;20243;-62
2021/11/09 06:54:03;;;;;;;20.73;13.57;;;;;;;0.73;100.00;99158.50;5074342;28;20212;-62
2021/11/09 06:56:29;;;;;;;23.33;14.67;;;;;;;0.77;100.00;99161.06;5074194;28;20208;-62
2021/11/09 06:58:56;;;;;;;22.00;14.50;;;;;;;0.84;100.00;99162.69;5074323;28;20214;-61
2021/11/09 07:01:24;;;;;;;22.73;15.57;;;;;;;0.88;100.00;99161.78;5074031;28;20240;-62
2021/11/09 07:03:50;;;;;;;23.10;14.47;;;;;;;0.96;100.00;99177.25;5074067;28;20247;-62
2021/11/09 07:06:17;;;;;;;20.33;14.00;;;;;;;0.96;100.00;99183.34;5074056;28;20212;-62
2021/11/09 07:08:43;;;;;;;22.50;13.40;;;;;;;0.99;100.00;99172.88;5074087;28;20290;-62
2021/11/09 07:11:10;;;;;;;20.67;13.53;;;;;;;1.05;100.00;99183.19;5073841;28;20700;-62
2021/11/09 07:13:36;;;;;;;22.67;14.77;;;;;;;1.13;100.00;99194.38;5072289;28;20207;-62
2021/11/09 07:16:03;;;;;;;23.97;15.47;;;;;;;1.08;100.00;99188.38;5073509;28;20242;-62
2021/11/09 07:18:31;;;;;;;22.77;15.20;;;;;;;1.22;100.00;99188.16;5073440;28;20225;-62
2021/11/09 07:20:58;;;;;;;22.10;15.47;;;;;;;1.28;100.00;99201.09;5073676;28;20240;-62
2021/11/09 07:23:25;;;;;;;21.07;14.67;;;;;;;1.31;100.00;99206.22;5073369;28;20699;-62
2021/11/09 07:25:52;;;;;;;23.10;15.27;;;;;;;1.34;100.00;99207.03;5073339;28;20246;-62
2021/11/09 07:28:19;;;;;;;20.97;14.30;;;;;;;1.33;100.00;99207.94;5073595;28;20211;-62
2021/11/09 07:30:53;;;;;;;23.57;15.03;;;;;;;1.33;100.00;99210.53;5073486;28;20220;-62
2021/11/09 07:33:20;;;;;;;21.90;14.27;;;;;;;1.40;100.00;99212.16;5073303;28;20289;-62
2021/11/09 07:35:48;;;;;;;20.47;14.10;;;;;;;1.45;100.00;99212.94;5073334;28;20226;-62
2021/11/09 07:38:16;;;;;;;22.93;15.40;;;;;;;1.55;100.00;99211.91;5071703;28;20215;-62
2021/11/09 07:40:43;;;;;;;29.20;16.20;;;;;;;1.63;100.00;99215.25;5073274;28;20252;-62
2021/11/09 07:43:09;;;;;;;24.13;15.63;;;;;;;1.60;100.00;99220.50;5073543;28;20285;-62
2021/11/09 07:45:36;;;;;;;27.10;15.70;;;;;;;1.73;100.00;99210.75;5073649;28;20234;-62
2021/11/09 07:48:03;;;;;;;26.23;15.63;;;;;;;1.78;100.00;99214.97;5073322;28;20566;-62
2021/11/09 07:50:30;;;;;;;21.50;15.93;;;;;;;1.89;100.00;99218.25;5073181;28;20215;-62
2021/11/09 07:52:59;;;;;;;21.17;14.97;;;;;;;1.92;100.00;99223.44;5072930;28;20219;-62
2021/11/09 07:55:27;;;;;;;22.67;15.07;;;;;;;2.00;100.00;99229.38;5073209;28;20212;-62
2021/11/09 07:57:56;;;;;;;23.60;15.83;;;;;;;2.06;100.00;99216.22;5073187;28;20221;-62
2021/11/09 08:00:26;;;;;;;24.90;16.47;;;;;;;2.14;100.00;99203.03;5073108;28;20275;-62
2021/11/09 08:03:07;;;;;;;24.87;15.90;;;;;;;2.19;100.00;99216.81;5068122;28;20227;-63
2021/11/09 08:05:38;;;;;;;24.53;14.37;;;;;;;2.29;100.00;99223.59;5070955;28;20558;-62
2021/11/09 08:08:11;;;;;;;22.00;15.03;;;;;;;2.31;100.00;99217.47;5072184;28;20668;-62
2021/11/09 08:10:38;;;;;;;21.67;14.43;;;;;;;2.33;100.00;99220.91;5073072;28;20238;-62
2021/11/09 08:13:04;;;;;;;20.60;13.83;;;;;;;2.36;100.00;99220.84;5072977;28;20215;-62
2021/11/09 08:15:32;;;;;;;23.50;14.87;;;;;;;2.45;100.00;99218.03;5072748;28;20207;-62
2021/11/09 08:17:58;;;;;;;27.63;15.73;;;;;;;2.58;100.00;99221.28;5072926;28;20698;-62
2021/11/09 08:20:25;;;;;;;20.20;14.00;;;;;;;2.66;100.00;99225.47;5072919;28;20598;-62
2021/11/09 08:22:51;;;;;;;18.00;13.63;;;;;;;2.65;100.00;99218.53;5072854;28;20219;-62
2021/11/09 08:25:20;;;;;;;18.63;12.67;;;;;;;2.73;100.00;99216.59;5070532;28;20220;-62
2021/11/09 08:27:46;;;;;;;21.30;13.03;;;;;;;2.82;100.00;99216.41;5072653;28;20220;-62
2021/11/09 08:30:13;;;;;;;18.03;12.37;;;;;;;2.86;100.00;99218.06;5070913;28;20249;-62
2021/11/09 08:32:42;;;;;;;18.87;11.83;;;;;;;2.93;100.00;99219.66;5072809;28;20223;-62
2021/11/09 08:35:11;;;;;;;17.57;10.97;;;;;;;3.02;100.00;99224.69;5069912;28;20677;-62
2021/11/09 08:37:37;;;;;;;17.90;10.90;;;;;;;3.09;100.00;99213.19;5072695;28;20215;-61
2021/11/09 08:40:10;;;;;;;15.93;10.90;;;;;;;3.20;100.00;99223.41;5072859;28;20239;-62
2021/11/09 08:42:42;;;;;;;12.93;9.60;;;;;;;3.31;100.00;99219.63;5072357;28;20215;-62
2021/11/09 08:45:14;;;;;;;13.73;10.43;;;;;;;3.39;100.00;99220.34;5072810;28;20223;-62
2021/11/09 08:47:46;;;;;;;14.50;10.10;;;;;;;3.44;100.00;99212.38;5072678;28;20215;-62
2021/11/09 08:50:13;;;;;;;14.90;10.67;;;;;;;3.52;100.00;99211.31;5072695;28;20242;-62
2021/11/09 08:52:40;;;;;;;14.70;9.73;;;;;;;3.53;100.00;99202.56;5072381;28;20215;-62
2021/11/09 08:55:21;;;;;;;16.53;10.47;;;;;;;3.65;100.00;99211.84;5072855;28;20251;-62
2021/11/09 08:58:12;;;;;;;14.93;10.70;;;;;;;3.61;100.00;99205.84;5070599;28;20681;-62
2021/11/09 09:06:06;;;;;;;15.37;12.03;;;;;;;3.77;100.00;99201.09;5072274;28;20290;-62
2021/11/09 09:08:33;;;;;;;16.47;11.73;;;;;;;3.84;100.00;99208.75;5072335;28;20218;-62
2021/11/09 09:11:00;;;;;;;21.07;12.73;;;;;;;4.00;100.00;99210.06;5072149;28;20209;-62
2021/11/09 09:13:28;;;;;;;14.27;10.80;;;;;;;4.02;100.00;99207.41;5072388;28;20238;-62
2021/11/09 09:15:55;;;;;;;16.80;12.00;;;;;;;4.09;100.00;99208.97;5072325;28;20216;-62
2021/11/09 09:18:22;;;;;;;20.20;12.63;;;;;;;4.16;100.00;99208.75;5072317;28;20210;-62
2021/11/09 09:20:52;;;;;;;16.23;12.03;;;;;;;4.25;100.00;99205.91;5075819;28;20243;-62
2021/11/09 09:23:21;;;;;;;17.97;11.90;;;;;;;4.32;100.00;99207.44;5074375;28;20209;-61
2021/11/09 09:25:51;;;;;;;17.27;12.03;;;;;;;4.40;100.00;99209.88;5075900;28;20217;-62
2021/11/09 09:53:30;;;;;;;15.23;9.23;;;;;;;5.54;100.00;99201.97;5089159;28;20790;-62
2021/11/09 09:56:00;;;;;;;9.77;8.17;;;;;;;5.63;100.00;99201.66;5089420;28;20275;-62
2021/11/09 09:58:27;;;;;;;11.00;7.57;;;;;;;5.71;100.00;99204.06;5088154;28;20612;-62
2021/11/09 10:00:53;;;;;;;9.30;6.83;;;;;;;5.82;100.00;99196.72;5089148;28;20204;-62
2021/11/09 10:03:31;;;;;;;13.30;7.87;;;;;;;5.94;100.00;99202.44;5088999;28;20675;-62
2021/11/09 10:06:02;;;;;;;8.90;6.37;;;;;;;5.98;100.00;99196.16;5088278;28;20218;-62
2021/11/09 10:08:39;;;;;;;9.27;6.33;;;;;;;6.07;100.00;99198.47;5088404;28;20214;-62
2021/11/09 10:11:05;;;;;;;7.97;6.10;;;;;;;6.15;100.00;99193.81;5088903;28;20225;-62
2021/11/09 10:13:40;;;;;;;9.00;6.00;;;;;;;6.22;100.00;99197.09;5088030;28;20252;-63
2021/11/09 10:16:06;;;;;;;8.63;6.37;;;;;;;6.35;100.00;99193.13;5087316;28;20214;-62
2021/11/09 10:18:43;;;;;;;8.53;5.53;;;;;;;6.40;100.00;99186.78;5088429;28;20219;-63
2021/11/09 10:21:12;;;;;;;10.30;5.93;;;;;;;6.48;100.00;99187.34;5085344;28;20225;-62
2021/11/09 10:23:39;;;;;;;8.67;6.10;;;;;;;6.55;100.00;99180.13;5088984;28;20272;-63
2021/11/09 10:26:12;;;;;;;9.20;5.60;;;;;;;6.66;100.00;99189.31;5087034;28;20222;-63
2021/11/09 10:28:39;;;;;;;9.20;5.80;;;;;;;6.81;100.00;99182.63;5083846;28;20242;-63
2021/11/09 10:31:08;;;;;;;8.77;5.30;;;;;;;6.82;100.00;99179.94;5082506;28;20245;-63
2021/11/09 10:33:39;;;;;;;7.10;4.90;;;;;;;6.93;100.00;99176.91;5076855;28;20652;-63
2021/11/09 10:36:17;;;;;;;7.73;4.77;;;;;;;7.05;100.00;99184.31;5088249;28;20595;-63
2021/11/09 10:38:44;;;;;;;7.40;4.50;;;;;;;7.23;100.00;99179.22;5087174;28;20279;-62
2021/11/09 10:41:11;;;;;;;6.37;4.30;;;;;;;7.32;100.00;99165.69;5084726;28;20242;-62
2021/11/09 10:43:37;;;;;;;8.63;5.13;;;;;;;7.40;100.00;99163.59;5084284;28;20511;-63
2021/11/09 10:46:04;;;;;;;6.37;4.63;;;;;;;7.50;100.00;99162.31;5072877;28;20684;-63
2021/11/09 10:48:32;;;;;;;28.37;9.63;;;;;;;7.63;100.00;99155.63;5074822;28;20573;-62
2021/11/09 10:51:01;;;;;;;8.27;4.57;;;;;;;7.79;100.00;99162.00;5072883;28;20250;-62
2021/11/09 10:53:34;;;;;;;6.10;3.90;;;;;;;7.97;100.00;99161.22;5066295;28;20239;-62
2021/11/09 10:56:10;;;;;;;5.37;3.80;;;;;;;8.03;100.00;99151.25;5075216;28;20625;-62
2021/11/09 11:04:11;;;;;;;6.77;3.10;;;;;;;8.19;94.15;99148.81;5074883;28;20757;-63
2021/11/09 11:06:41;;;;;;;5.90;3.20;;;;;;;8.31;93.07;99145.69;5074686;28;20211;-63
2021/11/09 11:09:18;;;;;;;5.83;3.00;;;;;;;8.45;93.87;99144.16;5073473;28;20227;-62
2021/11/09 11:11:47;;;;;;;6.23;3.43;;;;;;;8.48;92.02;99137.88;5075156;28;20286;-62
2021/11/09 11:14:16;;;;;;;6.10;3.07;;;;;;;8.58;89.93;99139.19;5072127;28;20254;-62
2021/11/09 11:16:44;;;;;;;6.17;2.80;;;;;;;8.71;88.54;99151.75;5074725;28;20709;-63
2021/11/09 11:19:14;;;;;;;5.50;3.20;;;;;;;8.73;89.19;99138.47;5075086;28;20220;-63
2021/11/09 11:21:41;;;;;;;6.17;3.07;;;;;;;8.80;88.79;99142.53;5074800;28;20295;-62
2021/11/09 11:24:09;;;;;;;5.43;2.80;;;;;;;8.81;89.13;99141.66;5074754;28;20238;-63
2021/11/09 11:26:38;;;;;;;5.53;2.87;;;;;;;8.94;88.16;99133.06;5075000;28;20219;-62
2021/11/09 11:29:06;;;;;;;7.30;3.30;;;;;;;8.94;88.27;99140.16;5075037;28;20212;-62
2021/11/09 11:31:32;;;;;;;5.60;3.17;;;;;;;9.00;88.96;99138.06;5074888;28;20220;-62
2021/11/09 11:34:00;;;;;;;4.93;2.80;;;;;;;9.05;85.17;99129.97;5073052;28;20245;-62
2021/11/09 11:36:26;;;;;;;7.63;2.63;;;;;;;9.06;86.80;99121.13;5074702;28;20302;-62
2021/11/09 11:38:56;;;;;;;5.60;2.60;;;;;;;9.02;81.83;99124.81;5074674;28;20240;-63
2021/11/09 11:41:30;;;;;;;5.73;2.60;;;;;;;9.01;82.89;99117.84;5074722;28;20220;-62
2021/11/09 11:44:00;;;;;;;6.90;2.83;;;;;;;9.00;83.94;99121.41;5074437;28;20212;-62
2021/11/09 11:46:53;;;;;;;5.40;2.27;;;;;;;9.02;84.92;99106.34;5073024;28;20224;-63
2021/11/09 11:49:26;;;;;;;3.83;2.37;;;;;;;9.05;85.57;99103.59;5073453;28;20216;-63
2021/11/09 11:52:09;;;;;;;6.77;2.97;;;;;;;9.15;85.66;99099.56;5073079;28;20219;-62
2021/11/09 11:54:45;;;;;;;6.13;2.77;;;;;;;9.12;82.51;99099.72;5072938;28;20245;-62
2021/11/09 11:57:26;;;;;;;3.57;2.40;;;;;;;9.07;81.47;99091.16;5063224;28;20569;-62
2021/11/09 11:59:55;;;;;;;3.73;2.40;;;;;;;9.11;84.40;99085.66;5068582;28;20241;-62
2021/11/09 12:02:35;;;;;;;5.07;2.33;;;;;;;9.12;82.50;99083.91;5071199;28;20238;-63
2021/11/09 12:05:03;;;;;;;4.90;2.23;;;;;;;9.17;84.33;99079.25;5072608;28;20213;-62
2021/11/09 12:07:53;;;;;;;4.43;2.33;;;;;;;9.26;82.96;99087.56;5072289;28;20224;-62
2021/11/09 12:10:21;;;;;;;5.00;2.43;;;;;;;9.30;80.06;99083.00;5062463;28;20680;-62
2021/11/09 12:13:04;;;;;;;4.00;2.03;;;;;;;9.23;79.77;99073.69;5067307;28;20231;-63
2021/11/09 12:15:50;;;;;;;4.93;2.20;;;;;;;9.28;80.58;99076.94;5069672;28;20243;-63
2021/11/09 12:18:39;;;;;;;3.00;2.07;;;;;;;9.33;83.88;99077.56;5071332;28;20252;-62
2021/11/09 12:21:09;;;;;;;4.27;2.27;;;;;;;9.36;83.58;99077.44;5069696;28;20218;-63
2021/11/09 12:23:38;;;;;;;4.60;1.93;;;;;;;9.40;85.58;99068.41;5072817;28;20651;-62
2021/11/09 12:26:05;;;;;;;4.43;2.30;;;;;;;9.40;82.23;99069.28;5071928;28;20267;-62
2021/11/09 12:28:33;;;;;;;3.70;2.30;;;;;;;9.53;79.95;99074.78;5071217;28;20223;-62
2021/11/09 12:31:11;;;;;;;3.57;2.07;;;;;;;9.47;80.84;99075.94;5071470;28;20218;-62
2021/11/09 12:33:46;;;;;;;3.17;2.10;;;;;;;9.52;78.80;99076.59;5070497;28;20285;-62
2021/11/09 12:36:19;;;;;;;2.13;1.80;;;;;;;9.60;79.41;99078.84;5073468;28;20226;-62
2021/11/09 12:38:49;;;;;;;3.03;2.20;;;;;;;9.58;80.15;99083.31;5073276;28;20208;-62
2021/11/09 12:41:17;;;;;;;5.30;2.30;;;;;;;9.60;77.44;99073.56;5073267;28;20212;-62
2021/11/09 12:43:49;;;;;;;3.73;1.90;;;;;;;9.56;75.83;99069.38;5073412;28;20589;-62
2021/11/09 12:46:26;;;;;;;5.67;2.00;;;;;;;9.55;76.99;99063.22;5073389;28;20219;-62
2021/11/09 12:48:59;;;;;;;4.50;2.20;;;;;;;9.52;78.66;99057.25;5073422;28;20217;-62
2021/11/09 12:51:28;;;;;;;3.97;1.90;;;;;;;9.50;77.95;99059.13;5063868;28;20757;-62
2021/11/09 12:53:59;;;;;;;5.67;2.13;;;;;;;9.49;79.58;99054.78;5071651;28;20231;-62
2021/11/09 12:56:32;;;;;;;4.10;2.03;;;;;;;9.49;78.16;99062.69;5072928;28;20218;-62
2021/11/09 12:59:03;;;;;;;4.13;2.40;;;;;;;9.48;81.04;99068.91;5071067;28;20244;-62
2021/11/09 13:01:52;;;;;;;5.63;2.40;;;;;;;9.57;78.73;99065.78;5072854;28;20673;-62
2021/11/09 13:04:26;;;;;;;5.17;1.93;;;;;;;9.42;77.94;99061.28;5072716;28;20276;-62
2021/11/09 13:06:58;;;;;;;3.70;2.20;;;;;;;9.44;76.94;99055.00;5072836;28;20620;-62
2021/11/09 13:09:30;;;;;;;6.00;2.33;;;;;;;9.45;77.35;99055.84;5073105;28;20336;-62